Lowell Highlands, MA

10 Minute Time Series

21-Sep-2018 06:10 AM

TimeTempHumidityDewpointBarometerWindSpeedWindGustWind DirRain
21-Sep-2018 12:10 AM58.2°F90%55.3°F30.297 inHg0 mph0 mph N/A (N/A)0.00 in
21-Sep-2018 12:20 AM58.2°F90%55.3°F30.295 inHg0 mph0 mph N/A (N/A)0.00 in
21-Sep-2018 12:30 AM58.2°F91%55.6°F30.296 inHg0 mph0 mph N/A (N/A)0.00 in
21-Sep-2018 12:40 AM58.2°F91%55.6°F30.294 inHg0 mph0 mph N/A (N/A)0.00 in
21-Sep-2018 12:50 AM58.2°F91%55.6°F30.288 inHg0 mph0 mph N/A (N/A)0.00 in
21-Sep-2018 01:00 AM58.2°F91%55.6°F30.288 inHg0 mph1 mph N/A (N/A)0.00 in
21-Sep-2018 01:10 AM58.2°F92%55.9°F30.285 inHg0 mph0 mph N/A (N/A)0.00 in
21-Sep-2018 01:20 AM58.2°F92%55.9°F30.292 inHg0 mph0 mph N/A (N/A)0.00 in
21-Sep-2018 01:30 AM58.2°F92%55.9°F30.288 inHg0 mph1 mph N/A (N/A)0.00 in
21-Sep-2018 01:40 AM58.2°F92%55.9°F30.286 inHg0 mph0 mph N/A (N/A)0.00 in
21-Sep-2018 01:50 AM58.2°F92%55.9°F30.289 inHg0 mph0 mph N/A (N/A)0.00 in
21-Sep-2018 02:00 AM58.2°F92%55.9°F30.280 inHg0 mph2 mph N/A (N/A)0.00 in
21-Sep-2018 02:10 AM58.3°F92%56.0°F30.276 inHg1 mph2 mph158° (SSE)0.00 in
21-Sep-2018 02:20 AM58.3°F92%56.0°F30.277 inHg0 mph2 mph N/A (N/A)0.00 in
21-Sep-2018 02:30 AM58.3°F92%56.0°F30.276 inHg0 mph0 mph N/A (N/A)0.00 in
21-Sep-2018 02:40 AM58.4°F92%56.1°F30.275 inHg0 mph1 mph N/A (N/A)0.00 in
21-Sep-2018 02:50 AM58.3°F92%56.0°F30.278 inHg0 mph0 mph N/A (N/A)0.00 in
21-Sep-2018 03:00 AM58.3°F92%56.0°F30.275 inHg0 mph1 mph N/A (N/A)0.00 in
21-Sep-2018 03:10 AM58.3°F92%56.0°F30.280 inHg0 mph1 mph N/A (N/A)0.00 in
21-Sep-2018 03:20 AM58.2°F92%55.9°F30.278 inHg0 mph1 mph N/A (N/A)0.00 in
21-Sep-2018 03:30 AM58.2°F92%55.9°F30.275 inHg0 mph2 mph N/A (N/A)0.00 in
21-Sep-2018 03:40 AM58.3°F92%56.0°F30.269 inHg0 mph1 mph N/A (N/A)0.00 in
21-Sep-2018 03:50 AM58.3°F92%56.0°F30.272 inHg0 mph1 mph N/A (N/A)0.00 in
21-Sep-2018 04:00 AM58.2°F92%55.9°F30.268 inHg0 mph1 mph N/A (N/A)0.00 in
21-Sep-2018 04:10 AM58.1°F92%55.8°F30.258 inHg1 mph2 mph158° (SSE)0.00 in
21-Sep-2018 04:20 AM58.1°F92%55.8°F30.259 inHg0 mph1 mph N/A (N/A)0.00 in
21-Sep-2018 04:30 AM57.9°F92%55.6°F30.266 inHg0 mph1 mph N/A (N/A)0.00 in
21-Sep-2018 04:40 AM57.7°F92%55.4°F30.272 inHg0 mph0 mph N/A (N/A)0.00 in
21-Sep-2018 04:50 AM57.6°F92%55.3°F30.275 inHg0 mph0 mph N/A (N/A)0.00 in
21-Sep-2018 05:00 AM57.5°F93%55.5°F30.275 inHg0 mph1 mph N/A (N/A)0.00 in
21-Sep-2018 05:10 AM57.4°F93%55.4°F30.275 inHg0 mph0 mph N/A (N/A)0.00 in
21-Sep-2018 05:20 AM57.3°F93%55.3°F30.276 inHg0 mph0 mph N/A (N/A)0.00 in
21-Sep-2018 05:30 AM57.3°F93%55.3°F30.280 inHg0 mph0 mph N/A (N/A)0.00 in
21-Sep-2018 05:40 AM57.4°F94%55.7°F30.276 inHg0 mph0 mph N/A (N/A)0.00 in
21-Sep-2018 05:50 AM57.4°F94%55.7°F30.277 inHg0 mph1 mph N/A (N/A)0.00 in
21-Sep-2018 06:00 AM57.4°F94%55.7°F30.276 inHg0 mph2 mph N/A (N/A)0.00 in
21-Sep-2018 06:10 AM57.5°F94%55.8°F30.278 inHg0 mph2 mph N/A (N/A)0.00 in